sensor_id;sensor_type;location;lat;lon;timestamp;temperature;humidity
19898;DHT22;10111;50.814;4.572;2023-08-06T00:00:22;17.30;99.90
19898;DHT22;10111;50.814;4.572;2023-08-06T00:02:48;17.30;99.90
19898;DHT22;10111;50.814;4.572;2023-08-06T00:05:14;17.30;99.90
19898;DHT22;10111;50.814;4.572;2023-08-06T00:07:44;17.40;99.90
19898;DHT22;10111;50.814;4.572;2023-08-06T00:10:10;17.40;99.90
19898;DHT22;10111;50.814;4.572;2023-08-06T00:12:36;17.40;99.90
19898;DHT22;10111;50.814;4.572;2023-08-06T00:15:01;17.40;99.90
19898;DHT22;10111;50.814;4.572;2023-08-06T00:17:27;17.30;99.90
19898;DHT22;10111;50.814;4.572;2023-08-06T00:19:53;17.30;99.90
19898;DHT22;10111;50.814;4.572;2023-08-06T00:22:18;17.40;99.90
19898;DHT22;10111;50.814;4.572;2023-08-06T00:24:44;17.40;99.90
19898;DHT22;10111;50.814;4.572;2023-08-06T00:27:10;17.40;99.90
19898;DHT22;10111;50.814;4.572;2023-08-06T00:29:35;17.40;99.90
19898;DHT22;10111;50.814;4.572;2023-08-06T00:32:01;17.50;99.90
19898;DHT22;10111;50.814;4.572;2023-08-06T00:34:27;17.50;99.90
19898;DHT22;10111;50.814;4.572;2023-08-06T00:36:52;17.40;99.90
19898;DHT22;10111;50.814;4.572;2023-08-06T00:39:19;17.50;99.90
19898;DHT22;10111;50.814;4.572;2023-08-06T00:41:45;17.50;99.90
19898;DHT22;10111;50.814;4.572;2023-08-06T00:44:10;17.40;99.90
19898;DHT22;10111;50.814;4.572;2023-08-06T00:46:36;17.50;99.90
19898;DHT22;10111;50.814;4.572;2023-08-06T00:49:02;17.50;99.90
19898;DHT22;10111;50.814;4.572;2023-08-06T00:51:27;17.50;99.90
19898;DHT22;10111;50.814;4.572;2023-08-06T00:53:54;17.40;99.90
19898;DHT22;10111;50.814;4.572;2023-08-06T00:56:20;17.50;99.90
19898;DHT22;10111;50.814;4.572;2023-08-06T00:58:46;17.40;99.90
19898;DHT22;10111;50.814;4.572;2023-08-06T01:01:12;17.30;99.90
19898;DHT22;10111;50.814;4.572;2023-08-06T01:03:37;17.40;99.90
19898;DHT22;10111;50.814;4.572;2023-08-06T01:06:03;17.40;99.90
19898;DHT22;10111;50.814;4.572;2023-08-06T01:14:28;17.40;99.90
19898;DHT22;10111;50.814;4.572;2023-08-06T01:16:58;17.50;99.90
19898;DHT22;10111;50.814;4.572;2023-08-06T01:19:24;17.40;99.90
19898;DHT22;10111;50.814;4.572;2023-08-06T01:21:50;17.40;99.90
19898;DHT22;10111;50.814;4.572;2023-08-06T01:24:16;17.40;99.90
19898;DHT22;10111;50.814;4.572;2023-08-06T01:27:09;17.40;99.90
19898;DHT22;10111;50.814;4.572;2023-08-06T01:29:52;17.40;99.90
19898;DHT22;10111;50.814;4.572;2023-08-06T01:32:20;17.40;99.90
19898;DHT22;10111;50.814;4.572;2023-08-06T01:34:47;17.30;99.90
19898;DHT22;10111;50.814;4.572;2023-08-06T01:37:13;17.30;99.90
19898;DHT22;10111;50.814;4.572;2023-08-06T01:39:42;17.30;99.90
19898;DHT22;10111;50.814;4.572;2023-08-06T01:42:08;17.30;99.90
19898;DHT22;10111;50.814;4.572;2023-08-06T01:44:33;17.20;99.90
19898;DHT22;10111;50.814;4.572;2023-08-06T01:46:59;17.20;99.90
19898;DHT22;10111;50.814;4.572;2023-08-06T01:49:25;17.20;99.90
19898;DHT22;10111;50.814;4.572;2023-08-06T01:51:50;17.20;99.90
19898;DHT22;10111;50.814;4.572;2023-08-06T01:54:16;17.20;99.90
19898;DHT22;10111;50.814;4.572;2023-08-06T01:56:41;17.20;99.90
19898;DHT22;10111;50.814;4.572;2023-08-06T01:59:07;17.20;99.90
19898;DHT22;10111;50.814;4.572;2023-08-06T02:01:33;17.20;99.90
19898;DHT22;10111;50.814;4.572;2023-08-06T02:03:58;17.20;99.90
19898;DHT22;10111;50.814;4.572;2023-08-06T02:06:24;17.20;99.90
19898;DHT22;10111;50.814;4.572;2023-08-06T02:08:50;17.30;99.90
19898;DHT22;10111;50.814;4.572;2023-08-06T02:11:15;17.20;99.90
19898;DHT22;10111;50.814;4.572;2023-08-06T02:13:41;17.20;99.90
19898;DHT22;10111;50.814;4.572;2023-08-06T02:16:07;17.20;99.90
19898;DHT22;10111;50.814;4.572;2023-08-06T02:18:34;17.20;99.90
19898;DHT22;10111;50.814;4.572;2023-08-06T02:20:59;17.20;99.90
19898;DHT22;10111;50.814;4.572;2023-08-06T02:23:26;17.20;99.90
19898;DHT22;10111;50.814;4.572;2023-08-06T02:26:00;17.20;99.90
19898;DHT22;10111;50.814;4.572;2023-08-06T02:28:26;17.20;99.90
19898;DHT22;10111;50.814;4.572;2023-08-06T02:30:52;17.20;99.90
19898;DHT22;10111;50.814;4.572;2023-08-06T02:33:17;17.20;99.90
19898;DHT22;10111;50.814;4.572;2023-08-06T02:35:43;17.10;99.90
19898;DHT22;10111;50.814;4.572;2023-08-06T02:38:09;17.10;99.90
19898;DHT22;10111;50.814;4.572;2023-08-06T02:40:34;17.10;99.90
19898;DHT22;10111;50.814;4.572;2023-08-06T02:43:00;17.10;99.90
19898;DHT22;10111;50.814;4.572;2023-08-06T02:45:25;17.10;99.90
19898;DHT22;10111;50.814;4.572;2023-08-06T02:47:51;17.00;99.90
19898;DHT22;10111;50.814;4.572;2023-08-06T02:50:17;17.00;99.90
19898;DHT22;10111;50.814;4.572;2023-08-06T02:52:42;17.00;99.90
19898;DHT22;10111;50.814;4.572;2023-08-06T02:55:08;16.90;99.90
19898;DHT22;10111;50.814;4.572;2023-08-06T02:57:34;16.90;99.90
19898;DHT22;10111;50.814;4.572;2023-08-06T02:59:59;16.90;99.90
19898;DHT22;10111;50.814;4.572;2023-08-06T03:02:25;16.90;99.90
19898;DHT22;10111;50.814;4.572;2023-08-06T03:04:50;16.90;99.90
19898;DHT22;10111;50.814;4.572;2023-08-06T03:07:16;16.90;99.90
19898;DHT22;10111;50.814;4.572;2023-08-06T03:09:42;16.80;99.90
19898;DHT22;10111;50.814;4.572;2023-08-06T03:12:08;16.80;99.90
19898;DHT22;10111;50.814;4.572;2023-08-06T03:14:33;16.80;99.90
19898;DHT22;10111;50.814;4.572;2023-08-06T03:16:59;16.80;99.90
19898;DHT22;10111;50.814;4.572;2023-08-06T03:19:24;16.80;99.90
19898;DHT22;10111;50.814;4.572;2023-08-06T03:21:50;16.90;99.90
19898;DHT22;10111;50.814;4.572;2023-08-06T03:24:16;16.90;99.90
19898;DHT22;10111;50.814;4.572;2023-08-06T03:26:41;16.90;99.90
19898;DHT22;10111;50.814;4.572;2023-08-06T03:29:07;16.90;99.90
19898;DHT22;10111;50.814;4.572;2023-08-06T03:31:33;16.90;99.90
19898;DHT22;10111;50.814;4.572;2023-08-06T03:33:58;17.00;99.90
19898;DHT22;10111;50.814;4.572;2023-08-06T03:36:24;16.90;99.90
19898;DHT22;10111;50.814;4.572;2023-08-06T03:38:49;16.90;99.90
19898;DHT22;10111;50.814;4.572;2023-08-06T03:41:15;16.90;99.90
19898;DHT22;10111;50.814;4.572;2023-08-06T03:43:41;16.90;99.90
19898;DHT22;10111;50.814;4.572;2023-08-06T03:46:06;16.90;99.90
19898;DHT22;10111;50.814;4.572;2023-08-06T03:48:32;16.80;99.90
19898;DHT22;10111;50.814;4.572;2023-08-06T03:50:57;16.80;99.90
19898;DHT22;10111;50.814;4.572;2023-08-06T03:53:26;16.70;99.90
19898;DHT22;10111;50.814;4.572;2023-08-06T03:55:51;16.70;99.90
19898;DHT22;10111;50.814;4.572;2023-08-06T03:58:17;16.70;99.90
19898;DHT22;10111;50.814;4.572;2023-08-06T04:00:42;16.70;99.90
19898;DHT22;10111;50.814;4.572;2023-08-06T04:03:08;16.70;99.90
19898;DHT22;10111;50.814;4.572;2023-08-06T04:05:34;16.60;99.90
19898;DHT22;10111;50.814;4.572;2023-08-06T04:07:59;16.70;99.90
19898;DHT22;10111;50.814;4.572;2023-08-06T04:10:25;16.70;99.90
19898;DHT22;10111;50.814;4.572;2023-08-06T04:12:51;16.70;99.90
19898;DHT22;10111;50.814;4.572;2023-08-06T04:15:16;16.70;99.90
19898;DHT22;10111;50.814;4.572;2023-08-06T04:17:42;16.70;99.90
19898;DHT22;10111;50.814;4.572;2023-08-06T04:20:08;16.70;99.90
19898;DHT22;10111;50.814;4.572;2023-08-06T04:22:33;16.70;99.90
19898;DHT22;10111;50.814;4.572;2023-08-06T04:24:59;16.70;99.90
19898;DHT22;10111;50.814;4.572;2023-08-06T04:27:25;16.60;99.90
19898;DHT22;10111;50.814;4.572;2023-08-06T04:29:50;16.50;99.90
19898;DHT22;10111;50.814;4.572;2023-08-06T04:32:16;16.30;99.90
19898;DHT22;10111;50.814;4.572;2023-08-06T04:34:42;16.30;99.90
19898;DHT22;10111;50.814;4.572;2023-08-06T04:37:08;16.10;99.90
19898;DHT22;10111;50.814;4.572;2023-08-06T04:39:34;15.90;99.90
19898;DHT22;10111;50.814;4.572;2023-08-06T04:42:00;15.80;99.90
19898;DHT22;10111;50.814;4.572;2023-08-06T04:44:25;15.70;99.90
19898;DHT22;10111;50.814;4.572;2023-08-06T04:46:51;15.60;99.90
19898;DHT22;10111;50.814;4.572;2023-08-06T04:49:18;15.60;99.90
19898;DHT22;10111;50.814;4.572;2023-08-06T04:51:44;15.60;99.90
19898;DHT22;10111;50.814;4.572;2023-08-06T04:54:10;15.60;99.90
19898;DHT22;10111;50.814;4.572;2023-08-06T04:56:35;15.60;99.90
19898;DHT22;10111;50.814;4.572;2023-08-06T04:59:01;15.40;99.90
19898;DHT22;10111;50.814;4.572;2023-08-06T05:01:27;15.30;99.90
19898;DHT22;10111;50.814;4.572;2023-08-06T05:03:53;15.20;99.90
19898;DHT22;10111;50.814;4.572;2023-08-06T05:06:19;15.20;99.90
19898;DHT22;10111;50.814;4.572;2023-08-06T05:08:45;15.10;99.90
19898;DHT22;10111;50.814;4.572;2023-08-06T05:11:10;15.00;99.90
19898;DHT22;10111;50.814;4.572;2023-08-06T05:13:36;15.00;99.90
19898;DHT22;10111;50.814;4.572;2023-08-06T05:16:01;14.80;99.90
19898;DHT22;10111;50.814;4.572;2023-08-06T05:18:27;14.80;99.90
19898;DHT22;10111;50.814;4.572;2023-08-06T05:20:53;14.90;99.90
19898;DHT22;10111;50.814;4.572;2023-08-06T05:23:19;14.80;99.90
19898;DHT22;10111;50.814;4.572;2023-08-06T05:25:44;14.80;99.90
19898;DHT22;10111;50.814;4.572;2023-08-06T05:28:10;14.90;99.90
19898;DHT22;10111;50.814;4.572;2023-08-06T05:30:39;14.90;99.90
19898;DHT22;10111;50.814;4.572;2023-08-06T05:33:05;14.90;99.90
19898;DHT22;10111;50.814;4.572;2023-08-06T05:35:30;14.90;99.90
19898;DHT22;10111;50.814;4.572;2023-08-06T05:37:56;14.90;99.90
19898;DHT22;10111;50.814;4.572;2023-08-06T05:40:22;15.00;99.90
19898;DHT22;10111;50.814;4.572;2023-08-06T05:42:47;14.90;99.90
19898;DHT22;10111;50.814;4.572;2023-08-06T05:45:13;14.90;99.90
19898;DHT22;10111;50.814;4.572;2023-08-06T05:47:39;14.90;99.90
19898;DHT22;10111;50.814;4.572;2023-08-06T05:50:05;14.90;99.90
19898;DHT22;10111;50.814;4.572;2023-08-06T05:52:31;14.90;99.90
19898;DHT22;10111;50.814;4.572;2023-08-06T05:54:56;14.90;99.90
19898;DHT22;10111;50.814;4.572;2023-08-06T05:57:22;15.00;99.90
19898;DHT22;10111;50.814;4.572;2023-08-06T05:59:48;15.00;99.90
19898;DHT22;10111;50.814;4.572;2023-08-06T06:02:13;15.00;99.90
19898;DHT22;10111;50.814;4.572;2023-08-06T06:04:40;15.00;99.90
19898;DHT22;10111;50.814;4.572;2023-08-06T06:07:06;15.00;99.90
19898;DHT22;10111;50.814;4.572;2023-08-06T06:09:32;15.10;99.90
19898;DHT22;10111;50.814;4.572;2023-08-06T06:11:57;15.10;99.90
19898;DHT22;10111;50.814;4.572;2023-08-06T06:14:23;15.10;99.90
19898;DHT22;10111;50.814;4.572;2023-08-06T06:16:48;15.10;99.90
19898;DHT22;10111;50.814;4.572;2023-08-06T06:19:14;15.20;99.90
19898;DHT22;10111;50.814;4.572;2023-08-06T06:21:40;15.20;99.90
19898;DHT22;10111;50.814;4.572;2023-08-06T06:24:06;15.20;99.90
19898;DHT22;10111;50.814;4.572;2023-08-06T06:26:32;15.20;99.90
19898;DHT22;10111;50.814;4.572;2023-08-06T06:28:58;15.30;99.90
19898;DHT22;10111;50.814;4.572;2023-08-06T06:31:24;15.30;99.90
19898;DHT22;10111;50.814;4.572;2023-08-06T06:33:49;15.30;99.90
19898;DHT22;10111;50.814;4.572;2023-08-06T06:36:15;15.30;99.90
19898;DHT22;10111;50.814;4.572;2023-08-06T06:38:41;15.30;99.90
19898;DHT22;10111;50.814;4.572;2023-08-06T06:41:06;15.30;99.90
19898;DHT22;10111;50.814;4.572;2023-08-06T06:43:32;15.30;99.90
19898;DHT22;10111;50.814;4.572;2023-08-06T06:45:59;15.30;99.90
19898;DHT22;10111;50.814;4.572;2023-08-06T06:48:29;15.30;99.90
19898;DHT22;10111;50.814;4.572;2023-08-06T06:50:55;15.40;99.90
19898;DHT22;10111;50.814;4.572;2023-08-06T06:53:21;15.40;99.90
19898;DHT22;10111;50.814;4.572;2023-08-06T06:56:01;15.40;99.90
19898;DHT22;10111;50.814;4.572;2023-08-06T06:58:26;15.40;99.90
19898;DHT22;10111;50.814;4.572;2023-08-06T07:00:52;15.70;99.90
19898;DHT22;10111;50.814;4.572;2023-08-06T07:03:19;15.70;99.90
19898;DHT22;10111;50.814;4.572;2023-08-06T07:05:45;15.90;99.90
19898;DHT22;10111;50.814;4.572;2023-08-06T07:08:11;15.90;99.90
19898;DHT22;10111;50.814;4.572;2023-08-06T07:10:36;16.00;99.90
19898;DHT22;10111;50.814;4.572;2023-08-06T07:13:02;16.10;99.90
19898;DHT22;10111;50.814;4.572;2023-08-06T07:15:28;16.10;99.90
19898;DHT22;10111;50.814;4.572;2023-08-06T07:17:53;16.10;99.90
19898;DHT22;10111;50.814;4.572;2023-08-06T07:20:19;16.00;99.90
19898;DHT22;10111;50.814;4.572;2023-08-06T07:22:45;16.00;99.90
19898;DHT22;10111;50.814;4.572;2023-08-06T07:25:10;16.00;99.90
19898;DHT22;10111;50.814;4.572;2023-08-06T07:27:36;15.90;99.90
19898;DHT22;10111;50.814;4.572;2023-08-06T07:30:02;15.60;99.90
19898;DHT22;10111;50.814;4.572;2023-08-06T07:32:28;15.50;99.90
19898;DHT22;10111;50.814;4.572;2023-08-06T07:34:54;15.50;99.90
19898;DHT22;10111;50.814;4.572;2023-08-06T07:37:24;15.70;99.90
19898;DHT22;10111;50.814;4.572;2023-08-06T07:39:50;15.80;99.90
19898;DHT22;10111;50.814;4.572;2023-08-06T07:42:16;15.80;99.90
19898;DHT22;10111;50.814;4.572;2023-08-06T07:44:41;15.80;99.90
19898;DHT22;10111;50.814;4.572;2023-08-06T07:47:07;15.90;99.90
19898;DHT22;10111;50.814;4.572;2023-08-06T07:49:33;15.90;99.90
19898;DHT22;10111;50.814;4.572;2023-08-06T07:51:58;15.90;99.90
19898;DHT22;10111;50.814;4.572;2023-08-06T07:54:24;15.80;99.90
19898;DHT22;10111;50.814;4.572;2023-08-06T07:56:50;15.70;99.90
19898;DHT22;10111;50.814;4.572;2023-08-06T07:59:16;15.70;99.90
19898;DHT22;10111;50.814;4.572;2023-08-06T08:01:42;15.70;99.90
19898;DHT22;10111;50.814;4.572;2023-08-06T08:04:07;15.80;99.90
19898;DHT22;10111;50.814;4.572;2023-08-06T08:06:33;16.00;99.90
19898;DHT22;10111;50.814;4.572;2023-08-06T08:08:59;16.10;99.90
19898;DHT22;10111;50.814;4.572;2023-08-06T08:11:25;16.20;99.90
19898;DHT22;10111;50.814;4.572;2023-08-06T08:13:51;16.30;99.90
19898;DHT22;10111;50.814;4.572;2023-08-06T08:16:17;16.50;99.90
19898;DHT22;10111;50.814;4.572;2023-08-06T08:18:42;16.60;99.90
19898;DHT22;10111;50.814;4.572;2023-08-06T08:21:08;16.70;99.90
19898;DHT22;10111;50.814;4.572;2023-08-06T08:23:34;17.10;99.90
19898;DHT22;10111;50.814;4.572;2023-08-06T08:25:59;17.30;99.90
19898;DHT22;10111;50.814;4.572;2023-08-06T08:28:27;17.60;99.90
19898;DHT22;10111;50.814;4.572;2023-08-06T08:30:53;17.70;99.90
19898;DHT22;10111;50.814;4.572;2023-08-06T08:33:18;17.70;99.90
19898;DHT22;10111;50.814;4.572;2023-08-06T08:35:45;17.80;99.90
19898;DHT22;10111;50.814;4.572;2023-08-06T08:38:11;17.90;99.90
19898;DHT22;10111;50.814;4.572;2023-08-06T08:40:42;17.50;99.90
19898;DHT22;10111;50.814;4.572;2023-08-06T08:43:10;17.20;99.90
19898;DHT22;10111;50.814;4.572;2023-08-06T08:45:39;16.90;99.90
19898;DHT22;10111;50.814;4.572;2023-08-06T08:48:05;16.60;99.90
19898;DHT22;10111;50.814;4.572;2023-08-06T08:50:31;16.30;99.90
19898;DHT22;10111;50.814;4.572;2023-08-06T08:52:57;16.20;99.90
19898;DHT22;10111;50.814;4.572;2023-08-06T08:55:22;16.30;99.90
19898;DHT22;10111;50.814;4.572;2023-08-06T08:57:49;16.50;99.90
19898;DHT22;10111;50.814;4.572;2023-08-06T09:00:15;16.50;99.90
19898;DHT22;10111;50.814;4.572;2023-08-06T09:02:41;16.50;99.90
19898;DHT22;10111;50.814;4.572;2023-08-06T09:05:09;16.60;99.90
19898;DHT22;10111;50.814;4.572;2023-08-06T09:07:39;16.80;99.90
19898;DHT22;10111;50.814;4.572;2023-08-06T09:10:07;17.00;99.90
19898;DHT22;10111;50.814;4.572;2023-08-06T09:12:34;17.10;99.90
19898;DHT22;10111;50.814;4.572;2023-08-06T09:15:00;17.00;99.90
19898;DHT22;10111;50.814;4.572;2023-08-06T09:17:28;17.20;99.90
19898;DHT22;10111;50.814;4.572;2023-08-06T09:19:53;17.20;99.90
19898;DHT22;10111;50.814;4.572;2023-08-06T09:22:19;17.20;99.90
19898;DHT22;10111;50.814;4.572;2023-08-06T09:24:45;17.30;99.90
19898;DHT22;10111;50.814;4.572;2023-08-06T09:27:12;17.50;99.90
19898;DHT22;10111;50.814;4.572;2023-08-06T09:29:44;17.50;99.90
19898;DHT22;10111;50.814;4.572;2023-08-06T09:32:11;17.60;99.90
19898;DHT22;10111;50.814;4.572;2023-08-06T09:34:42;17.20;99.90
19898;DHT22;10111;50.814;4.572;2023-08-06T09:37:09;16.80;99.90
19898;DHT22;10111;50.814;4.572;2023-08-06T09:39:37;16.80;99.90
19898;DHT22;10111;50.814;4.572;2023-08-06T09:42:03;16.90;99.90
19898;DHT22;10111;50.814;4.572;2023-08-06T09:44:31;16.90;99.90
19898;DHT22;10111;50.814;4.572;2023-08-06T09:46:59;16.90;99.90
19898;DHT22;10111;50.814;4.572;2023-08-06T09:49:40;16.90;99.90
19898;DHT22;10111;50.814;4.572;2023-08-06T09:52:11;16.90;99.90
19898;DHT22;10111;50.814;4.572;2023-08-06T09:54:38;16.70;99.90
19898;DHT22;10111;50.814;4.572;2023-08-06T09:57:04;16.60;99.90
19898;DHT22;10111;50.814;4.572;2023-08-06T09:59:31;16.60;99.90
19898;DHT22;10111;50.814;4.572;2023-08-06T10:01:57;16.50;99.90
19898;DHT22;10111;50.814;4.572;2023-08-06T10:04:23;16.60;99.90
19898;DHT22;10111;50.814;4.572;2023-08-06T10:06:49;16.50;99.90
19898;DHT22;10111;50.814;4.572;2023-08-06T10:09:15;16.50;99.90
19898;DHT22;10111;50.814;4.572;2023-08-06T10:11:42;16.50;99.90
19898;DHT22;10111;50.814;4.572;2023-08-06T10:14:27;16.40;99.90
19898;DHT22;10111;50.814;4.572;2023-08-06T10:16:54;16.30;99.90
19898;DHT22;10111;50.814;4.572;2023-08-06T10:19:23;16.20;99.90
19898;DHT22;10111;50.814;4.572;2023-08-06T10:22:08;16.40;99.90
19898;DHT22;10111;50.814;4.572;2023-08-06T10:24:57;16.30;99.90
19898;DHT22;10111;50.814;4.572;2023-08-06T10:27:33;16.30;99.90
19898;DHT22;10111;50.814;4.572;2023-08-06T10:30:22;16.30;99.90
19898;DHT22;10111;50.814;4.572;2023-08-06T10:32:50;16.30;99.90
19898;DHT22;10111;50.814;4.572;2023-08-06T10:35:35;16.20;99.90
19898;DHT22;10111;50.814;4.572;2023-08-06T10:38:16;16.00;99.90
19898;DHT22;10111;50.814;4.572;2023-08-06T10:46:08;15.70;99.90
19898;DHT22;10111;50.814;4.572;2023-08-06T10:48:38;15.70;99.90
19898;DHT22;10111;50.814;4.572;2023-08-06T10:51:08;15.80;99.90
19898;DHT22;10111;50.814;4.572;2023-08-06T10:53:34;15.80;99.90
19898;DHT22;10111;50.814;4.572;2023-08-06T10:56:00;15.90;99.90
19898;DHT22;10111;50.814;4.572;2023-08-06T10:58:30;15.90;99.90
19898;DHT22;10111;50.814;4.572;2023-08-06T11:00:56;15.80;99.90
19898;DHT22;10111;50.814;4.572;2023-08-06T11:03:22;15.80;99.90
19898;DHT22;10111;50.814;4.572;2023-08-06T11:05:49;16.00;99.90
19898;DHT22;10111;50.814;4.572;2023-08-06T11:08:28;16.00;99.90
19898;DHT22;10111;50.814;4.572;2023-08-06T11:10:54;15.90;99.90
19898;DHT22;10111;50.814;4.572;2023-08-06T11:13:20;15.70;99.90
19898;DHT22;10111;50.814;4.572;2023-08-06T11:15:46;15.70;99.90
19898;DHT22;10111;50.814;4.572;2023-08-06T11:18:12;15.60;99.90
19898;DHT22;10111;50.814;4.572;2023-08-06T11:20:39;15.60;99.90
19898;DHT22;10111;50.814;4.572;2023-08-06T11:23:05;15.70;99.90
19898;DHT22;10111;50.814;4.572;2023-08-06T11:25:36;15.80;99.90
19898;DHT22;10111;50.814;4.572;2023-08-06T11:28:03;16.00;99.90
19898;DHT22;10111;50.814;4.572;2023-08-06T11:30:29;16.10;99.90
19898;DHT22;10111;50.814;4.572;2023-08-06T11:32:54;16.20;99.90
19898;DHT22;10111;50.814;4.572;2023-08-06T11:35:20;16.30;99.90
19898;DHT22;10111;50.814;4.572;2023-08-06T11:37:46;16.40;99.90
19898;DHT22;10111;50.814;4.572;2023-08-06T11:40:13;16.50;99.90
19898;DHT22;10111;50.814;4.572;2023-08-06T11:42:40;16.50;99.90
19898;DHT22;10111;50.814;4.572;2023-08-06T11:45:06;16.20;99.90
19898;DHT22;10111;50.814;4.572;2023-08-06T11:47:34;16.10;99.90
19898;DHT22;10111;50.814;4.572;2023-08-06T11:49:59;15.90;99.90
19898;DHT22;10111;50.814;4.572;2023-08-06T11:52:26;15.70;99.90
19898;DHT22;10111;50.814;4.572;2023-08-06T11:55:05;15.60;99.90
19898;DHT22;10111;50.814;4.572;2023-08-06T11:57:38;15.70;99.90
19898;DHT22;10111;50.814;4.572;2023-08-06T12:00:07;15.70;99.90
19898;DHT22;10111;50.814;4.572;2023-08-06T12:02:34;15.80;99.90
19898;DHT22;10111;50.814;4.572;2023-08-06T12:05:20;15.70;99.90
19898;DHT22;10111;50.814;4.572;2023-08-06T12:07:54;15.70;99.90
19898;DHT22;10111;50.814;4.572;2023-08-06T12:10:21;15.80;99.90
19898;DHT22;10111;50.814;4.572;2023-08-06T12:12:47;15.80;99.90
19898;DHT22;10111;50.814;4.572;2023-08-06T12:15:14;16.10;99.90
19898;DHT22;10111;50.814;4.572;2023-08-06T12:17:40;16.50;99.90
19898;DHT22;10111;50.814;4.572;2023-08-06T12:20:07;16.80;99.90
19898;DHT22;10111;50.814;4.572;2023-08-06T12:22:33;16.80;99.90
19898;DHT22;10111;50.814;4.572;2023-08-06T12:25:07;16.90;99.90
19898;DHT22;10111;50.814;4.572;2023-08-06T12:27:38;17.20;99.90
19898;DHT22;10111;50.814;4.572;2023-08-06T12:30:04;17.60;99.90
19898;DHT22;10111;50.814;4.572;2023-08-06T12:32:30;17.70;99.90
19898;DHT22;10111;50.814;4.572;2023-08-06T12:34:56;17.90;99.90
19898;DHT22;10111;50.814;4.572;2023-08-06T12:37:22;17.70;99.90
19898;DHT22;10111;50.814;4.572;2023-08-06T12:39:48;18.00;99.90
19898;DHT22;10111;50.814;4.572;2023-08-06T12:42:14;18.30;99.90
19898;DHT22;10111;50.814;4.572;2023-08-06T12:44:39;18.40;99.90
19898;DHT22;10111;50.814;4.572;2023-08-06T12:47:07;18.50;99.90
19898;DHT22;10111;50.814;4.572;2023-08-06T12:49:32;18.60;99.90
19898;DHT22;10111;50.814;4.572;2023-08-06T12:51:58;18.20;99.90
19898;DHT22;10111;50.814;4.572;2023-08-06T12:54:28;18.10;99.90
19898;DHT22;10111;50.814;4.572;2023-08-06T12:56:54;17.90;99.90
19898;DHT22;10111;50.814;4.572;2023-08-06T12:59:20;17.70;99.90
19898;DHT22;10111;50.814;4.572;2023-08-06T13:01:46;17.80;99.90
19898;DHT22;10111;50.814;4.572;2023-08-06T13:04:12;17.50;99.90
19898;DHT22;10111;50.814;4.572;2023-08-06T13:06:38;17.50;99.90
19898;DHT22;10111;50.814;4.572;2023-08-06T13:09:06;17.30;99.90
19898;DHT22;10111;50.814;4.572;2023-08-06T13:11:33;17.50;99.90
19898;DHT22;10111;50.814;4.572;2023-08-06T13:14:10;17.50;99.90
19898;DHT22;10111;50.814;4.572;2023-08-06T13:16:37;17.40;99.90
19898;DHT22;10111;50.814;4.572;2023-08-06T13:19:04;16.80;99.90
19898;DHT22;10111;50.814;4.572;2023-08-06T13:24:05;16.30;99.90
19898;DHT22;10111;50.814;4.572;2023-08-06T13:26:31;16.30;99.90
19898;DHT22;10111;50.814;4.572;2023-08-06T13:28:58;16.40;99.90
19898;DHT22;10111;50.814;4.572;2023-08-06T13:31:24;16.20;99.90
19898;DHT22;10111;50.814;4.572;2023-08-06T13:33:49;16.20;99.90
19898;DHT22;10111;50.814;4.572;2023-08-06T13:36:18;16.00;99.90
19898;DHT22;10111;50.814;4.572;2023-08-06T13:38:44;15.90;99.90
19898;DHT22;10111;50.814;4.572;2023-08-06T13:41:09;15.80;99.90
19898;DHT22;10111;50.814;4.572;2023-08-06T13:43:35;15.70;99.90
19898;DHT22;10111;50.814;4.572;2023-08-06T13:46:00;15.90;99.90
19898;DHT22;10111;50.814;4.572;2023-08-06T13:48:26;16.00;99.90
19898;DHT22;10111;50.814;4.572;2023-08-06T13:50:52;16.10;99.90
19898;DHT22;10111;50.814;4.572;2023-08-06T13:53:18;16.20;99.90
19898;DHT22;10111;50.814;4.572;2023-08-06T13:55:43;16.10;99.90
19898;DHT22;10111;50.814;4.572;2023-08-06T13:58:09;16.20;99.90
19898;DHT22;10111;50.814;4.572;2023-08-06T14:00:38;16.20;99.90
19898;DHT22;10111;50.814;4.572;2023-08-06T14:03:03;16.30;99.90
19898;DHT22;10111;50.814;4.572;2023-08-06T14:05:29;16.20;99.90
19898;DHT22;10111;50.814;4.572;2023-08-06T14:07:55;16.10;99.90
19898;DHT22;10111;50.814;4.572;2023-08-06T14:10:20;16.00;99.90
19898;DHT22;10111;50.814;4.572;2023-08-06T14:12:46;15.80;99.90
19898;DHT22;10111;50.814;4.572;2023-08-06T14:15:12;15.90;99.90
19898;DHT22;10111;50.814;4.572;2023-08-06T14:17:37;15.90;99.90
19898;DHT22;10111;50.814;4.572;2023-08-06T14:20:04;15.90;99.90
19898;DHT22;10111;50.814;4.572;2023-08-06T14:22:30;16.00;99.90
19898;DHT22;10111;50.814;4.572;2023-08-06T14:24:57;16.00;99.90
19898;DHT22;10111;50.814;4.572;2023-08-06T14:27:23;15.90;99.90
19898;DHT22;10111;50.814;4.572;2023-08-06T14:29:49;15.70;99.90
19898;DHT22;10111;50.814;4.572;2023-08-06T14:32:14;15.70;99.90
19898;DHT22;10111;50.814;4.572;2023-08-06T14:34:43;15.60;99.90
19898;DHT22;10111;50.814;4.572;2023-08-06T14:37:09;15.60;99.90
19898;DHT22;10111;50.814;4.572;2023-08-06T14:39:35;15.60;99.90
19898;DHT22;10111;50.814;4.572;2023-08-06T14:42:01;15.50;99.90
19898;DHT22;10111;50.814;4.572;2023-08-06T14:44:27;15.70;99.90
19898;DHT22;10111;50.814;4.572;2023-08-06T14:46:53;15.80;99.90
19898;DHT22;10111;50.814;4.572;2023-08-06T14:49:18;15.90;99.90
19898;DHT22;10111;50.814;4.572;2023-08-06T14:51:44;15.90;99.90
19898;DHT22;10111;50.814;4.572;2023-08-06T14:54:10;16.10;99.90
19898;DHT22;10111;50.814;4.572;2023-08-06T14:56:35;16.10;99.90
19898;DHT22;10111;50.814;4.572;2023-08-06T14:59:01;16.20;99.90
19898;DHT22;10111;50.814;4.572;2023-08-06T15:01:26;16.40;99.90
19898;DHT22;10111;50.814;4.572;2023-08-06T15:03:52;16.50;99.90
19898;DHT22;10111;50.814;4.572;2023-08-06T15:06:18;16.40;99.90
19898;DHT22;10111;50.814;4.572;2023-08-06T15:08:43;16.40;99.90
19898;DHT22;10111;50.814;4.572;2023-08-06T15:11:13;16.50;99.90
19898;DHT22;10111;50.814;4.572;2023-08-06T15:13:39;16.60;99.90
19898;DHT22;10111;50.814;4.572;2023-08-06T15:16:05;16.40;99.90
19898;DHT22;10111;50.814;4.572;2023-08-06T15:18:31;16.30;99.90
19898;DHT22;10111;50.814;4.572;2023-08-06T15:20:56;16.30;99.90
19898;DHT22;10111;50.814;4.572;2023-08-06T15:23:23;16.00;99.90
19898;DHT22;10111;50.814;4.572;2023-08-06T15:25:49;15.90;99.90
19898;DHT22;10111;50.814;4.572;2023-08-06T15:28:15;15.80;99.90
19898;DHT22;10111;50.814;4.572;2023-08-06T15:30:42;15.80;99.90
19898;DHT22;10111;50.814;4.572;2023-08-06T15:33:14;15.70;99.90
19898;DHT22;10111;50.814;4.572;2023-08-06T15:35:40;15.70;99.90
19898;DHT22;10111;50.814;4.572;2023-08-06T15:38:05;15.80;99.90
19898;DHT22;10111;50.814;4.572;2023-08-06T15:40:31;15.80;99.90